Time;durP1;ratioP1;P1;durP2;ratioP2;P2;SDS_P1;SDS_P2;PMS_P1;PMS_P2;Temp;Humidity;BMP_temperature;BMP_pressure;BME280_temperature;BME280_humidity;BME280_pressure;Samples;Min_cycle;Max_cycle;Signal;HPM_P1;HPM_P2
2021/07/13 00:01:20;;;;;;;7.95;6.65;;;;;;;18.24;69.71;96435.63;5037625;28;20090;-63
2021/07/13 00:03:45;;;;;;;9.18;7.03;;;;;;;18.21;70.03;96435.03;5052970;28;20059;-64
2021/07/13 00:06:11;;;;;;;8.45;7.35;;;;;;;18.19;69.67;96433.31;5036133;28;20025;-68
2021/07/13 00:08:38;;;;;;;8.88;7.22;;;;;;;18.16;69.94;96428.28;5034233;28;20422;-67
2021/07/13 00:11:04;;;;;;;10.52;7.35;;;;;;;18.15;70.23;96436.31;5033475;28;20080;-68
2021/07/13 00:13:30;;;;;;;12.20;7.72;;;;;;;18.05;70.26;96423.69;5035633;28;20030;-65
2021/07/13 00:15:55;;;;;;;8.50;6.90;;;;;;;18.08;70.50;96430.56;5053233;28;20044;-64
2021/07/13 00:18:21;;;;;;;9.95;7.53;;;;;;;18.01;70.99;96438.09;5035065;28;20120;-63
2021/07/13 00:20:47;;;;;;;9.65;7.55;;;;;;;18.00;71.06;96423.16;5033307;28;20471;-63
2021/07/13 00:23:12;;;;;;;12.07;8.70;;;;;;;18.08;70.79;96430.56;5037658;28;20436;-69
2021/07/13 00:25:38;;;;;;;9.25;7.80;;;;;;;18.06;70.77;96428.03;5033238;28;20022;-62
2021/07/13 00:28:05;;;;;;;8.60;7.68;;;;;;;18.02;70.80;96433.63;5040527;28;20468;-63
2021/07/13 00:30:30;;;;;;;11.30;7.63;;;;;;;18.01;70.28;96424.00;5033115;28;20108;-63
2021/07/13 00:32:56;;;;;;;8.65;7.75;;;;;;;18.01;70.26;96430.16;5033245;28;20424;-63
2021/07/13 00:35:21;;;;;;;9.10;8.20;;;;;;;17.96;70.27;96432.25;5033250;28;20022;-64
2021/07/13 00:37:48;;;;;;;8.25;7.45;;;;;;;17.96;70.60;96428.75;5034122;28;20029;-61
2021/07/13 00:40:17;;;;;;;10.35;7.82;;;;;;;17.97;70.19;96428.66;5033327;28;20056;-66
2021/07/13 00:42:47;;;;;;;8.88;7.50;;;;;;;17.94;70.10;96428.88;5042562;28;20030;-66
2021/07/13 00:45:13;;;;;;;10.57;9.45;;;;;;;17.94;70.39;96435.03;5056188;28;20029;-66
2021/07/13 00:47:39;;;;;;;8.75;7.70;;;;;;;17.94;70.39;96432.38;5057195;28;20031;-65
2021/07/13 00:50:05;;;;;;;10.27;8.13;;;;;;;17.94;70.61;96431.50;5039337;28;20140;-60
2021/07/13 00:52:31;;;;;;;14.43;8.93;;;;;;;17.92;70.57;96436.09;5043964;28;20386;-64
2021/07/13 00:54:58;;;;;;;12.50;7.88;;;;;;;17.94;70.74;96436.81;5040606;28;20029;-67
2021/07/13 00:57:24;;;;;;;11.30;7.43;;;;;;;18.00;70.87;96432.91;5040472;28;20022;-62
2021/07/13 00:59:49;;;;;;;10.38;7.47;;;;;;;17.98;70.61;96433.03;5052875;28;20025;-68
2021/07/13 01:02:17;;;;;;;8.50;7.68;;;;;;;17.97;70.60;96439.25;5059452;28;20020;-63
2021/07/13 01:04:47;;;;;;;10.23;7.47;;;;;;;17.94;70.36;96431.50;5059399;28;20052;-66
2021/07/13 01:07:18;;;;;;;8.65;7.82;;;;;;;17.87;70.44;96431.13;5059118;28;20067;-66
2021/07/13 01:10:14;;;;;;;8.88;7.55;;;;;;;17.79;70.97;96439.56;5057409;28;20033;-64
2021/07/13 01:12:46;;;;;;;11.75;8.35;;;;;;;17.78;70.86;96435.25;5043735;28;20041;-64
2021/07/13 01:15:14;;;;;;;10.50;8.38;;;;;;;17.73;70.33;96434.69;5058489;28;20040;-66
2021/07/13 01:17:48;;;;;;;10.40;8.15;;;;;;;17.67;71.28;96428.03;5039229;28;20033;-61
2021/07/13 01:20:35;;;;;;;9.25;7.63;;;;;;;17.66;71.36;96425.50;5040414;28;20023;-64
2021/07/13 01:23:29;;;;;;;8.82;7.93;;;;;;;17.66;70.89;96428.16;5047849;28;20075;-66
2021/07/13 01:26:03;;;;;;;11.95;8.25;;;;;;;17.57;70.96;96418.22;5058842;28;20029;-66
2021/07/13 01:28:52;;;;;;;9.68;8.18;;;;;;;17.53;70.80;96414.94;5043137;28;20042;-62
2021/07/13 01:31:19;;;;;;;10.82;8.25;;;;;;;17.47;71.46;96417.97;5057115;28;20077;-62
2021/07/13 01:33:57;;;;;;;8.63;7.38;;;;;;;17.43;71.38;96417.34;5059146;28;20483;-65
2021/07/13 01:36:32;;;;;;;14.02;8.68;;;;;;;17.39;71.68;96411.41;5053789;28;20031;-65
2021/07/13 01:39:00;;;;;;;9.32;8.10;;;;;;;17.38;71.84;96415.03;5039182;28;20116;-64
2021/07/13 01:41:29;;;;;;;10.40;8.48;;;;;;;17.40;71.40;96412.28;5039921;28;20068;-64
2021/07/13 01:43:56;;;;;;;9.98;8.48;;;;;;;17.40;71.74;96404.34;5038905;28;20032;-63
2021/07/13 01:46:22;;;;;;;9.25;8.30;;;;;;;17.48;71.55;96411.72;5040126;28;20026;-64
2021/07/13 01:48:53;;;;;;;10.85;7.68;;;;;;;17.45;71.50;96407.50;5039118;28;20034;-62
2021/07/13 01:51:20;;;;;;;10.98;9.18;;;;;;;17.51;71.22;96408.88;5042099;28;20036;-64
2021/07/13 01:53:47;;;;;;;12.40;8.25;;;;;;;17.52;71.16;96413.25;5053396;28;20394;-67
2021/07/13 01:56:13;;;;;;;10.25;8.18;;;;;;;17.48;71.21;96417.88;5043344;28;20033;-63
2021/07/13 01:58:41;;;;;;;10.65;8.70;;;;;;;17.51;71.35;96411.53;5035770;28;20128;-63
2021/07/13 02:01:17;;;;;;;10.27;8.68;;;;;;;17.47;71.18;96417.97;5035809;28;20074;-65
2021/07/13 02:03:43;;;;;;;9.40;8.43;;;;;;;17.41;71.54;96422.75;5038783;28;20429;-65
2021/07/13 02:06:11;;;;;;;11.30;9.38;;;;;;;17.42;71.30;96419.16;5052398;28;20026;-65
2021/07/13 02:08:38;;;;;;;10.18;8.70;;;;;;;17.39;71.38;96421.13;5045129;28;20040;-67
2021/07/13 02:11:06;;;;;;;9.60;8.65;;;;;;;17.31;71.72;96424.31;5053526;28;20025;-64
2021/07/13 02:13:32;;;;;;;11.93;8.02;;;;;;;17.33;71.71;96430.34;5051853;28;20075;-66
2021/07/13 02:15:59;;;;;;;10.00;8.18;;;;;;;17.33;71.47;96426.88;5055059;28;20021;-66
2021/07/13 02:18:25;;;;;;;11.82;8.60;;;;;;;17.34;71.53;96425.91;5055519;28;20025;-62
2021/07/13 02:20:51;;;;;;;9.07;8.05;;;;;;;17.35;71.70;96422.31;5054623;28;20021;-66
2021/07/13 02:23:17;;;;;;;9.15;8.27;;;;;;;17.32;71.43;96422.50;5044220;28;20035;-61
2021/07/13 02:25:45;;;;;;;13.98;8.77;;;;;;;17.36;71.53;96427.50;5055416;28;20021;-64
2021/07/13 02:28:39;;;;;;;10.30;8.38;;;;;;;17.33;71.02;96432.16;5054980;28;20075;-67
2021/07/13 02:31:32;;;;;;;10.88;9.43;;;;;;;17.20;71.70;96427.69;5040833;28;20052;-64
2021/07/13 02:34:07;;;;;;;10.07;8.90;;;;;;;17.16;71.66;96439.41;5053478;28;20031;-66
2021/07/13 02:36:35;;;;;;;12.13;10.25;;;;;;;17.13;72.68;96437.78;5048624;28;20025;-65
2021/07/13 02:39:06;;;;;;;12.95;8.98;;;;;;;17.16;72.35;96440.22;5035255;28;20028;-64
2021/07/13 02:41:32;;;;;;;;;;;;;;;17.21;71.73;96433.78;5035665;28;20026;-66
2021/07/13 02:43:58;;;;;;;11.32;9.60;;;;;;;17.23;71.89;96437.19;5034807;28;19924;-65
2021/07/13 02:46:28;;;;;;;10.35;9.30;;;;;;;17.17;71.76;96430.53;5036924;28;20021;-63
2021/07/13 02:48:55;;;;;;;12.90;10.52;;;;;;;17.15;72.04;96435.06;5035014;28;20022;-67
2021/07/13 02:51:24;;;;;;;14.55;8.93;;;;;;;17.16;72.17;96434.13;5038951;28;20494;-63
2021/07/13 02:53:53;;;;;;;10.85;8.68;;;;;;;17.21;71.95;96426.72;5049786;28;20500;-63
2021/07/13 02:56:22;;;;;;;10.27;9.13;;;;;;;17.24;71.71;96437.09;5052891;28;20104;-65
2021/07/13 02:58:49;;;;;;;9.75;8.60;;;;;;;17.23;71.68;96431.91;5051879;28;20025;-66
2021/07/13 03:01:15;;;;;;;12.65;8.35;;;;;;;17.20;72.30;96432.97;5054681;28;20064;-66
2021/07/13 03:03:42;;;;;;;10.95;9.82;;;;;;;17.22;72.00;96428.41;5054558;28;20467;-65
2021/07/13 03:06:09;;;;;;;11.68;8.95;;;;;;;17.20;72.44;96435.59;5052410;28;20546;-68
2021/07/13 03:08:35;;;;;;;17.63;10.25;;;;;;;17.25;72.41;96435.31;5053347;28;20035;-63
2021/07/13 03:11:02;;;;;;;13.63;9.02;;;;;;;17.29;72.13;96432.34;5036809;28;20353;-65
2021/07/13 03:13:31;;;;;;;12.18;9.73;;;;;;;17.28;72.28;96430.63;5054531;28;20019;-64
2021/07/13 03:15:56;;;;;;;10.25;8.95;;;;;;;17.23;72.47;96438.03;5052477;28;20032;-63
2021/07/13 03:18:22;;;;;;;10.27;8.20;;;;;;;17.17;72.38;96434.03;5054259;28;20025;-62
2021/07/13 03:20:50;;;;;;;10.38;9.25;;;;;;;17.21;72.44;96425.88;5053926;28;20100;-66
2021/07/13 03:23:17;;;;;;;8.77;7.90;;;;;;;17.30;72.37;96428.75;5036675;28;20083;-63
2021/07/13 03:25:45;;;;;;;10.25;8.82;;;;;;;17.33;72.14;96432.16;5054140;28;20039;-64
2021/07/13 03:28:11;;;;;;;11.23;9.07;;;;;;;17.34;72.00;96429.38;5048274;28;20030;-64
2021/07/13 03:30:38;;;;;;;9.43;8.43;;;;;;;17.40;72.25;96428.97;5034124;28;20033;-66
2021/07/13 03:33:06;;;;;;;8.95;8.05;;;;;;;17.40;72.13;96420.22;5034177;28;20057;-66
2021/07/13 03:35:32;;;;;;;9.35;8.38;;;;;;;17.42;71.68;96411.22;5034149;28;20144;-66
2021/07/13 03:37:58;;;;;;;11.15;8.20;;;;;;;17.58;71.99;96420.72;5049600;28;20025;-64
2021/07/13 03:40:27;;;;;;;9.95;7.80;;;;;;;17.78;71.56;96416.72;5053550;28;20025;-61
2021/07/13 03:42:54;;;;;;;9.07;8.18;;;;;;;18.11;71.15;96422.44;5037158;28;20065;-65
2021/07/13 03:45:20;;;;;;;8.60;7.80;;;;;;;18.44;69.48;96423.66;5053590;28;20053;-69
2021/07/13 03:47:51;;;;;;;8.38;7.40;;;;;;;18.84;68.78;96423.50;5040601;28;20056;-65
2021/07/13 03:50:19;;;;;;;8.23;7.00;;;;;;;19.24;67.93;96427.66;5053442;28;20045;-64
2021/07/13 03:52:45;;;;;;;11.23;7.45;;;;;;;19.63;67.44;96422.09;5038630;28;20418;-65
2021/07/13 03:55:12;;;;;;;8.45;6.13;;;;;;;20.04;65.92;96417.22;5051726;28;20039;-64
2021/07/13 03:57:38;;;;;;;6.63;6.00;;;;;;;20.46;64.63;96421.88;5053416;28;20471;-66
2021/07/13 04:00:10;;;;;;;10.93;6.80;;;;;;;20.80;63.53;96416.50;5034961;28;20026;-63
2021/07/13 04:02:36;;;;;;;9.85;6.57;;;;;;;21.10;62.81;96411.44;5033566;28;20026;-64
2021/07/13 04:05:02;;;;;;;8.40;6.22;;;;;;;21.50;62.00;96414.41;5034486;28;20427;-69
2021/07/13 04:07:28;;;;;;;9.15;6.00;;;;;;;21.87;60.89;96421.94;5043854;28;20017;-70
2021/07/13 04:09:53;;;;;;;8.55;5.88;;;;;;;22.20;60.02;96414.66;5039009;28;20104;-68
2021/07/13 04:12:19;;;;;;;7.53;5.80;;;;;;;22.58;59.27;96414.09;5033284;28;20030;-68
2021/07/13 04:14:44;;;;;;;7.10;6.00;;;;;;;22.90;58.58;96417.53;5033585;28;20041;-66
2021/07/13 04:17:10;;;;;;;7.30;5.72;;;;;;;23.14;58.41;96413.59;5032468;28;20487;-68
2021/07/13 04:19:35;;;;;;;5.93;5.32;;;;;;;23.43;57.80;96420.75;5032232;28;20037;-69
2021/07/13 04:22:01;;;;;;;6.68;5.93;;;;;;;23.75;57.08;96419.56;5032535;28;20104;-66
2021/07/13 04:24:27;;;;;;;10.20;6.13;;;;;;;24.09;56.44;96427.06;5032444;28;20033;-66
2021/07/13 04:26:52;;;;;;;8.50;5.70;;;;;;;24.40;55.61;96423.31;5032453;28;20144;-65
2021/07/13 04:29:18;;;;;;;6.00;5.40;;;;;;;24.63;55.21;96420.22;5033174;28;20075;-65
2021/07/13 04:31:43;;;;;;;6.15;5.53;;;;;;;25.01;54.61;96414.78;5033247;28;20021;-67
2021/07/13 04:34:12;;;;;;;6.20;5.60;;;;;;;25.31;53.93;96422.59;5033180;28;20482;-73
2021/07/13 04:36:39;;;;;;;6.60;5.90;;;;;;;25.61;53.67;96421.34;5033165;28;20029;-65
2021/07/13 04:39:08;;;;;;;6.70;5.30;;;;;;;25.93;53.11;96420.88;5033137;28;20013;-70
2021/07/13 04:41:34;;;;;;;8.48;5.60;;;;;;;26.26;52.69;96413.00;5033057;28;20018;-69
2021/07/13 04:43:59;;;;;;;6.93;5.72;;;;;;;26.52;51.89;96422.00;5032937;28;20086;-66
2021/07/13 04:46:27;;;;;;;12.18;5.75;;;;;;;26.75;51.48;96414.19;5032990;28;20032;-68
2021/07/13 04:48:53;;;;;;;8.10;5.63;;;;;;;26.97;51.06;96417.28;5032977;28;20025;-69
2021/07/13 04:51:18;;;;;;;7.30;6.05;;;;;;;27.18;50.65;96411.44;5032720;28;20045;-71
2021/07/13 04:53:44;;;;;;;5.93;5.32;;;;;;;27.40;49.59;96409.13;5032999;28;20033;-67
2021/07/13 04:56:09;;;;;;;7.57;5.75;;;;;;;27.70;50.18;96404.09;5032938;28;20037;-71
2021/07/13 04:58:35;;;;;;;7.53;5.53;;;;;;;28.00;50.40;96407.03;5032871;28;20044;-68
2021/07/13 05:01:01;;;;;;;6.25;5.47;;;;;;;28.34;50.54;96405.09;5032864;28;20034;-67
2021/07/13 05:03:26;;;;;;;6.35;5.70;;;;;;;28.63;48.96;96417.06;5032769;28;20037;-74
2021/07/13 05:05:52;;;;;;;6.88;5.30;;;;;;;28.79;48.25;96414.47;5032852;28;20464;-68
2021/07/13 05:08:18;;;;;;;8.75;6.05;;;;;;;28.84;47.69;96409.41;5032715;28;20093;-68
2021/07/13 05:10:44;;;;;;;9.15;5.57;;;;;;;29.14;49.14;96417.66;5032779;28;20092;-71
2021/07/13 05:13:11;;;;;;;6.93;6.00;;;;;;;29.30;46.27;96415.81;5032950;28;20025;-74
2021/07/13 05:15:40;;;;;;;6.35;5.50;;;;;;;29.56;45.90;96409.25;5032754;28;20030;-67
2021/07/13 05:18:08;;;;;;;8.70;5.93;;;;;;;29.70;45.57;96416.53;5032852;28;20033;-64
2021/07/13 05:20:34;;;;;;;8.65;5.75;;;;;;;29.81;45.24;96414.41;5032663;28;20423;-69
2021/07/13 05:23:06;;;;;;;6.72;5.95;;;;;;;29.79;45.07;96409.19;5032676;28;20079;-69
2021/07/13 05:25:35;;;;;;;7.70;6.00;;;;;;;29.99;45.38;96411.34;5032640;28;20025;-69
2021/07/13 05:28:01;;;;;;;7.68;4.90;;;;;;;30.12;44.47;96410.69;5032608;28;20060;-68
2021/07/13 05:30:27;;;;;;;8.68;5.78;;;;;;;30.34;44.23;96419.75;5032624;28;20056;-68
2021/07/13 05:32:54;;;;;;;10.27;5.70;;;;;;;30.57;43.81;96420.66;5035151;28;20029;-63
2021/07/13 05:35:20;;;;;;;9.90;5.93;;;;;;;30.76;42.05;96427.38;5036350;28;20025;-67
2021/07/13 05:37:46;;;;;;;9.25;5.75;;;;;;;30.98;41.14;96420.13;5036449;28;20487;-66
2021/07/13 05:40:12;;;;;;;8.93;6.28;;;;;;;31.20;43.89;96424.69;5035164;28;20022;-65
2021/07/13 05:42:38;;;;;;;6.72;5.95;;;;;;;31.45;44.13;96424.34;5036136;28;20034;-63
2021/07/13 05:45:05;;;;;;;6.20;5.60;;;;;;;31.65;44.01;96424.50;5036184;28;20037;-71
2021/07/13 05:47:31;;;;;;;9.45;5.80;;;;;;;32.01;45.25;96431.66;5036056;28;20025;-66
2021/07/13 05:49:57;;;;;;;5.70;5.20;;;;;;;32.30;44.15;96430.78;5035807;28;20029;-68
2021/07/13 05:52:23;;;;;;;6.80;5.90;;;;;;;32.49;41.94;96432.78;5036054;28;20029;-64
2021/07/13 05:54:49;;;;;;;7.78;6.53;;;;;;;32.71;40.66;96435.38;5036036;28;20087;-66
2021/07/13 05:57:14;;;;;;;9.10;6.13;;;;;;;32.81;40.25;96434.16;5036056;28;20468;-65
2021/07/13 05:59:40;;;;;;;7.90;6.05;;;;;;;32.85;39.75;96436.25;5035799;28;20029;-66
2021/07/13 06:02:07;;;;;;;7.88;6.10;;;;;;;33.06;39.70;96439.03;5035868;28;20025;-70
2021/07/13 06:04:33;;;;;;;6.63;5.38;;;;;;;33.23;40.51;96432.19;5035775;28;20388;-64
2021/07/13 06:06:59;;;;;;;11.60;6.63;;;;;;;33.45;39.96;96434.75;5035774;28;20032;-64
2021/07/13 06:09:27;;;;;;;10.25;6.53;;;;;;;33.69;39.51;96435.19;5035730;28;20021;-67
2021/07/13 06:11:59;;;;;;;8.50;5.75;;;;;;;33.96;39.45;96429.75;5035742;28;20022;-70
2021/07/13 06:14:25;;;;;;;7.80;5.97;;;;;;;34.21;39.81;96420.13;5035637;28;20026;-66
2021/07/13 06:16:51;;;;;;;10.40;5.88;;;;;;;34.40;38.12;96421.94;5035555;28;20021;-67
2021/07/13 06:19:17;;;;;;;8.68;5.57;;;;;;;34.56;38.00;96427.13;5035696;28;20551;-68
2021/07/13 06:21:43;;;;;;;6.38;5.45;;;;;;;34.66;35.97;96428.38;5035456;28;20379;-68
2021/07/13 06:24:08;;;;;;;5.75;5.25;;;;;;;34.81;33.84;96423.69;5035299;28;20057;-66
2021/07/13 06:26:34;;;;;;;6.03;5.18;;;;;;;34.94;34.22;96426.34;5035457;28;20060;-65
2021/07/13 06:28:59;;;;;;;8.65;4.97;;;;;;;35.02;36.28;96420.66;5035502;28;20127;-68
2021/07/13 06:31:26;;;;;;;13.50;5.05;;;;;;;35.13;35.07;96419.13;5035295;28;20025;-71
2021/07/13 06:33:51;;;;;;;5.80;5.00;;;;;;;35.23;34.45;96424.13;5035328;28;20375;-68
2021/07/13 06:36:17;;;;;;;11.90;4.97;;;;;;;35.34;32.76;96424.47;5035314;28;20033;-65
2021/07/13 06:38:43;;;;;;;5.53;4.82;;;;;;;35.44;35.43;96422.09;5033965;28;20032;-69
2021/07/13 06:41:08;;;;;;;6.05;4.72;;;;;;;35.62;34.57;96420.47;5035108;28;20028;-66
2021/07/13 06:43:34;;;;;;;7.05;4.93;;;;;;;35.82;32.62;96423.06;5034805;28;20541;-66
2021/07/13 06:45:59;;;;;;;7.57;5.38;;;;;;;35.85;32.93;96421.78;5035066;28;20495;-71
2021/07/13 06:48:25;;;;;;;7.80;5.45;;;;;;;35.92;32.71;96417.09;5034953;28;20021;-67
2021/07/13 06:50:54;;;;;;;6.18;4.60;;;;;;;35.94;29.41;96419.59;5034870;28;20049;-64
2021/07/13 06:53:20;;;;;;;8.80;4.60;;;;;;;35.81;29.95;96415.94;5035014;28;20013;-67
2021/07/13 06:55:46;;;;;;;5.43;4.20;;;;;;;35.82;32.35;96414.91;5034840;28;20472;-69
2021/07/13 06:58:12;;;;;;;9.63;4.20;;;;;;;35.88;30.36;96418.63;5034849;28;20045;-65
2021/07/13 07:00:37;;;;;;;7.53;4.00;;;;;;;35.96;32.38;96414.78;5034737;28;20021;-65
2021/07/13 07:03:03;;;;;;;8.73;4.68;;;;;;;35.91;29.98;96410.00;5034619;28;20088;-68
2021/07/13 07:05:29;;;;;;;6.32;4.32;;;;;;;36.01;30.02;96410.31;5034655;28;20025;-70
2021/07/13 07:07:55;;;;;;;8.38;4.50;;;;;;;36.19;29.24;96405.09;5034730;28;20029;-64
2021/07/13 07:10:21;;;;;;;4.93;4.20;;;;;;;36.25;30.28;96410.53;5034677;28;20391;-67
2021/07/13 07:12:49;;;;;;;4.97;3.63;;;;;;;36.26;28.95;96414.06;5034510;28;20076;-68
2021/07/13 07:15:15;;;;;;;9.25;4.28;;;;;;;36.36;28.79;96405.38;5034456;28;20079;-68
2021/07/13 07:17:53;;;;;;;5.20;4.70;;;;;;;36.32;28.32;96406.91;5034447;28;20025;-65
2021/07/13 07:20:23;;;;;;;6.40;3.85;;;;;;;36.46;28.24;96404.84;5034459;28;20031;-68
2021/07/13 07:22:49;;;;;;;6.03;4.80;;;;;;;36.64;30.29;96402.09;5034363;28;20079;-65
2021/07/13 07:25:16;;;;;;;8.18;4.30;;;;;;;36.76;30.23;96396.75;5034349;28;20031;-66
2021/07/13 07:27:42;;;;;;;6.75;4.60;;;;;;;36.86;29.50;96400.78;5034188;28;20064;-68
2021/07/13 07:30:10;;;;;;;9.95;4.57;;;;;;;36.88;28.05;96398.66;5034140;28;20034;-68
2021/07/13 07:32:38;;;;;;;6.03;4.43;;;;;;;37.01;30.02;96401.22;5034189;28;20025;-67
2021/07/13 07:35:06;;;;;;;7.50;4.22;;;;;;;36.98;28.33;96396.22;5034043;28;20022;-66
2021/07/13 07:37:32;;;;;;;6.90;4.40;;;;;;;37.07;26.64;96394.00;5034020;28;20021;-65
2021/07/13 07:39:58;;;;;;;6.70;4.18;;;;;;;37.10;26.92;96400.88;5033935;28;20022;-65
2021/07/13 07:42:24;;;;;;;6.00;4.28;;;;;;;36.77;28.13;96395.69;5034130;28;20025;-69
2021/07/13 07:44:50;;;;;;;7.38;5.15;;;;;;;36.96;27.81;96392.88;5033951;28;20064;-68
2021/07/13 07:47:16;;;;;;;8.15;5.05;;;;;;;37.19;27.45;96395.97;5033920;28;20106;-62
2021/07/13 07:49:42;;;;;;;5.70;4.05;;;;;;;37.05;26.09;96401.59;5033631;28;20029;-65
2021/07/13 07:52:08;;;;;;;8.43;5.00;;;;;;;37.10;26.76;96398.13;5033736;28;20091;-69
2021/07/13 07:54:33;;;;;;;5.65;4.70;;;;;;;37.03;27.44;96395.53;5033021;28;20537;-68
2021/07/13 07:56:59;;;;;;;9.27;4.95;;;;;;;36.74;29.25;96404.31;5033779;28;20033;-68
2021/07/13 07:59:25;;;;;;;8.07;4.18;;;;;;;36.66;27.06;96407.31;5033840;28;20026;-64
2021/07/13 08:01:51;;;;;;;7.47;4.88;;;;;;;36.54;28.20;96399.09;5033574;28;20502;-69
2021/07/13 08:04:16;;;;;;;8.40;4.72;;;;;;;36.09;30.73;96400.19;5033530;28;20105;-71
2021/07/13 08:06:42;;;;;;;7.60;4.70;;;;;;;35.81;29.02;96402.34;5033546;28;20067;-66
2021/07/13 08:09:08;;;;;;;6.50;5.45;;;;;;;35.15;29.57;96405.31;5033632;28;20606;-68
2021/07/13 08:11:35;;;;;;;8.68;5.15;;;;;;;35.10;30.77;96406.00;5033517;28;20033;-68
2021/07/13 08:14:04;;;;;;;10.30;5.43;;;;;;;35.30;30.53;96402.31;5033397;28;20026;-66
2021/07/13 08:16:30;;;;;;;7.20;5.53;;;;;;;35.44;31.61;96410.38;5033401;28;20033;-69
2021/07/13 08:18:56;;;;;;;8.63;4.55;;;;;;;35.50;28.98;96410.31;5033369;28;20139;-67
2021/07/13 08:21:21;;;;;;;8.30;5.00;;;;;;;35.12;31.38;96403.88;5033268;28;20121;-68
2021/07/13 08:23:47;;;;;;;7.30;4.88;;;;;;;35.25;31.21;96403.00;5033398;28;20026;-68
2021/07/13 08:26:13;;;;;;;7.13;4.50;;;;;;;35.32;29.81;96402.09;5033304;28;20025;-67
2021/07/13 08:28:39;;;;;;;8.00;4.95;;;;;;;35.46;28.54;96400.13;5033285;28;20068;-70
2021/07/13 08:31:05;;;;;;;5.93;5.30;;;;;;;35.61;27.98;96392.47;5033249;28;20025;-61
2021/07/13 08:33:30;;;;;;;7.38;4.45;;;;;;;35.79;28.54;96393.59;5033208;28;20053;-68
2021/07/13 08:35:56;;;;;;;6.30;5.10;;;;;;;35.51;28.25;96392.97;5033094;28;20018;-70
2021/07/13 08:38:21;;;;;;;6.45;5.30;;;;;;;35.25;31.83;96391.28;5033178;28;20025;-66
2021/07/13 08:40:47;;;;;;;5.57;4.38;;;;;;;35.20;31.88;96396.53;5033072;28;20537;-65
2021/07/13 08:43:14;;;;;;;6.53;5.28;;;;;;;35.21;28.72;96387.34;5033078;28;20025;-65
2021/07/13 08:45:41;;;;;;;11.50;5.05;;;;;;;35.46;29.88;96386.53;5033084;28;20398;-65
2021/07/13 08:48:13;;;;;;;7.30;4.78;;;;;;;35.29;30.87;96385.19;5032989;28;20026;-65
2021/07/13 08:50:39;;;;;;;7.30;5.07;;;;;;;35.26;30.66;96393.78;5032796;28;20050;-70
2021/07/13 08:53:05;;;;;;;11.20;5.05;;;;;;;35.17;30.20;96386.91;5032986;28;20029;-65
2021/07/13 08:55:31;;;;;;;7.07;4.88;;;;;;;35.13;28.96;96383.81;5032981;28;20030;-66
2021/07/13 08:57:57;;;;;;;9.32;5.20;;;;;;;34.87;30.60;96380.22;5032830;28;20030;-67
2021/07/13 09:00:22;;;;;;;8.57;5.15;;;;;;;35.01;30.47;96386.41;5032960;28;20025;-68
2021/07/13 09:03:12;;;;;;;5.22;4.72;;;;;;;34.99;32.00;96380.34;5032833;28;20029;-67
2021/07/13 09:05:50;;;;;;;7.75;5.18;;;;;;;34.90;29.71;96387.09;5033522;28;20025;-68
2021/07/13 09:08:17;;;;;;;7.53;4.80;;;;;;;34.68;31.07;96389.28;5036815;28;20037;-69
2021/07/13 09:11:03;;;;;;;6.15;5.10;;;;;;;34.81;29.06;96381.09;5036916;28;20445;-63
2021/07/13 09:13:34;;;;;;;6.15;4.82;;;;;;;34.83;29.65;96389.00;5036805;28;20049;-72
2021/07/13 09:16:02;;;;;;;6.32;4.43;;;;;;;34.60;29.99;96388.47;5036736;28;20060;-67
2021/07/13 09:18:36;;;;;;;5.05;4.55;;;;;;;34.69;30.42;96383.66;5036637;28;20470;-63
2021/07/13 09:21:05;;;;;;;7.50;4.30;;;;;;;34.87;29.67;96387.53;5036640;28;20031;-70
2021/07/13 09:23:31;;;;;;;11.20;4.80;;;;;;;34.89;31.31;96383.56;5036628;28;20025;-69
2021/07/13 09:25:57;;;;;;;7.03;5.22;;;;;;;35.00;29.96;96382.00;5036555;28;20450;-67
2021/07/13 09:28:24;;;;;;;6.38;5.25;;;;;;;34.63;29.45;96373.63;5036508;28;20021;-71
2021/07/13 09:30:58;;;;;;;6.22;4.90;;;;;;;34.36;29.99;96373.75;5036461;28;20061;-65
2021/07/13 09:33:26;;;;;;;8.38;5.07;;;;;;;34.32;29.88;96375.22;5036407;28;20037;-64
2021/07/13 09:36:01;;;;;;;5.40;4.82;;;;;;;34.15;31.20;96379.25;5036467;28;20031;-68
2021/07/13 09:38:28;;;;;;;11.07;4.97;;;;;;;34.28;30.61;96372.94;5036326;28;20080;-66
2021/07/13 09:41:13;;;;;;;6.65;5.18;;;;;;;34.41;32.04;96377.47;5036300;28;20392;-65
2021/07/13 09:43:46;;;;;;;9.55;4.97;;;;;;;34.62;31.51;96377.41;5036205;28;20041;-64
2021/07/13 09:46:34;;;;;;;7.88;4.38;;;;;;;34.90;30.91;96370.78;5036182;28;20021;-66
2021/07/13 09:49:23;;;;;;;12.75;5.43;;;;;;;35.05;30.10;96373.22;5036150;28;20433;-64
2021/07/13 09:52:05;;;;;;;7.35;5.50;;;;;;;34.71;30.43;96369.84;5035819;28;20088;-68
2021/07/13 09:54:35;;;;;;;10.32;4.70;;;;;;;34.43;29.55;96366.41;5035939;28;20037;-65
2021/07/13 09:57:18;;;;;;;6.63;5.10;;;;;;;34.22;30.73;96370.25;5035962;28;20029;-61
2021/07/13 09:59:47;;;;;;;6.60;4.70;;;;;;;34.40;29.26;96359.53;5035890;28;20022;-68
2021/07/13 10:02:15;;;;;;;6.10;4.75;;;;;;;34.60;29.12;96361.31;5035859;28;20491;-64
2021/07/13 10:04:42;;;;;;;5.18;4.68;;;;;;;34.87;29.41;96368.50;5035855;28;20109;-63
2021/07/13 10:07:10;;;;;;;9.88;5.00;;;;;;;35.01;31.49;96366.56;5035913;28;20095;-68
2021/07/13 10:09:41;;;;;;;10.63;4.35;;;;;;;35.10;29.75;96367.97;5035709;28;20053;-66
2021/07/13 10:12:14;;;;;;;8.32;5.15;;;;;;;35.26;29.10;96363.91;5035743;28;20030;-64
2021/07/13 10:14:44;;;;;;;7.35;5.07;;;;;;;35.39;31.68;96365.66;5035648;28;20029;-63
2021/07/13 10:17:11;;;;;;;9.70;4.93;;;;;;;35.45;31.27;96363.13;5035213;28;20060;-69
2021/07/13 10:20:02;;;;;;;7.20;4.65;;;;;;;35.14;28.74;96357.47;5035571;28;20472;-67
2021/07/13 10:22:29;;;;;;;11.50;4.57;;;;;;;34.74;29.21;96356.69;5032370;28;20063;-68
2021/07/13 10:24:59;;;;;;;5.90;5.25;;;;;;;34.75;31.81;96365.66;5035548;28;20113;-70
2021/07/13 10:27:31;;;;;;;8.77;5.00;;;;;;;34.44;29.98;96362.66;5035485;28;20037;-68
2021/07/13 10:30:00;;;;;;;7.07;4.95;;;;;;;34.15;32.50;96354.00;5035255;28;20030;-65
2021/07/13 10:32:25;;;;;;;6.15;4.82;;;;;;;33.99;31.04;96350.69;5035288;28;20029;-64
2021/07/13 10:34:53;;;;;;;7.65;5.30;;;;;;;34.16;31.63;96347.53;5035206;28;20044;-68
2021/07/13 10:37:28;;;;;;;6.65;4.85;;;;;;;34.54;32.78;96349.47;5035302;28;20428;-67
2021/07/13 10:40:00;;;;;;;6.05;5.05;;;;;;;34.76;30.59;96345.63;5035261;28;20079;-72
2021/07/13 10:42:41;;;;;;;6.93;5.50;;;;;;;34.76;30.38;96346.44;5035166;28;20379;-68
2021/07/13 10:45:30;;;;;;;6.28;4.75;;;;;;;34.72;31.54;96347.94;5035107;28;20021;-68
2021/07/13 10:47:56;;;;;;;6.70;4.88;;;;;;;34.57;31.37;96348.19;5034001;28;20033;-69
2021/07/13 10:50:22;;;;;;;5.38;4.70;;;;;;;34.26;30.68;96347.91;5034794;28;20104;-66
2021/07/13 10:53:18;;;;;;;9.43;5.30;;;;;;;33.91;31.18;96348.19;5034825;28;20025;-72
2021/07/13 10:55:46;;;;;;;8.07;4.95;;;;;;;33.60;31.74;96344.28;5035013;28;20029;-71
2021/07/13 10:58:11;;;;;;;5.30;4.80;;;;;;;33.50;30.56;96337.38;5035199;28;20033;-69
2021/07/13 11:00:58;;;;;;;8.32;5.43;;;;;;;33.33;32.94;96347.81;5034868;28;20021;-66
2021/07/13 11:03:30;;;;;;;5.68;5.07;;;;;;;33.32;32.69;96338.03;5034843;28;20460;-65
2021/07/13 11:06:12;;;;;;;12.93;5.20;;;;;;;33.07;31.40;96337.81;5034659;28;20033;-64
2021/07/13 11:08:40;;;;;;;8.35;5.03;;;;;;;33.23;33.24;96333.88;5034749;28;20026;-64
2021/07/13 11:11:07;;;;;;;10.60;4.97;;;;;;;33.46;33.83;96338.00;5034586;28;20059;-69
2021/07/13 11:13:33;;;;;;;6.88;5.20;;;;;;;33.46;31.96;96336.13;5034474;28;20033;-69
2021/07/13 11:15:59;;;;;;;9.30;5.57;;;;;;;33.34;31.34;96335.94;5034479;28;20033;-66
2021/07/13 11:18:36;;;;;;;7.15;4.60;;;;;;;33.49;32.82;96338.44;5034487;28;20384;-63
2021/07/13 11:21:24;;;;;;;6.63;5.30;;;;;;;33.69;31.33;96325.91;5034575;28;20025;-69
2021/07/13 11:23:52;;;;;;;9.05;5.72;;;;;;;33.81;29.48;96326.09;5034397;28;20472;-65
2021/07/13 11:26:19;;;;;;;5.70;5.13;;;;;;;33.98;30.06;96326.50;5034432;28;20026;-62
2021/07/13 11:28:47;;;;;;;7.60;4.78;;;;;;;34.25;31.51;96321.00;5033809;28;20025;-70
2021/07/13 11:31:22;;;;;;;6.00;4.63;;;;;;;34.57;29.79;96322.91;5033758;28;20104;-68
2021/07/13 11:34:00;;;;;;;8.00;4.88;;;;;;;34.38;29.34;96320.09;5034173;28;20029;-69
2021/07/13 11:36:27;;;;;;;6.53;4.78;;;;;;;34.14;30.70;96317.91;5034088;28;20506;-65
2021/07/13 11:38:53;;;;;;;9.88;5.43;;;;;;;34.30;31.71;96321.16;5034046;28;20037;-65